createdAt,value
2023-05-09T00:02:38.281Z,101394.75
2023-05-09T00:06:40.953Z,101391.13
2023-05-09T00:10:44.964Z,101380.16
2023-05-09T00:14:51.498Z,101380.09
2023-05-09T00:18:54.156Z,101377.81
2023-05-09T00:22:56.826Z,101379.41
2023-05-09T00:27:01.566Z,101375.59
2023-05-09T00:31:04.785Z,101365.44
2023-05-09T00:35:08.746Z,101364.84
2023-05-09T00:39:12.474Z,101350.28
2023-05-09T00:43:16.794Z,101352.94
2023-05-09T00:47:19.907Z,101337.53
2023-05-09T00:51:23.041Z,101349.03
2023-05-09T00:55:25.870Z,101334.84
2023-05-09T00:59:30.197Z,101337.66
2023-05-09T01:03:33.461Z,101328.38
2023-05-09T01:07:42.373Z,101325.66
2023-05-09T01:11:49.816Z,101318.31
2023-05-09T01:15:59.950Z,101311.72
2023-05-09T01:20:11.567Z,101305.13
2023-05-09T01:24:33.246Z,101300.47
2023-05-09T01:28:45.611Z,101295.81
2023-05-09T01:32:52.934Z,101294.94
2023-05-09T01:37:00.701Z,101288.34
2023-05-09T01:41:05.313Z,101291.00
2023-05-09T01:45:10.705Z,101290.72
2023-05-09T01:49:14.839Z,101291.56
2023-05-09T01:53:18.764Z,101284.16
2023-05-09T01:57:22.690Z,101269.34
2023-05-09T02:01:26.228Z,101270.16
2023-05-09T02:05:31.936Z,101264.63
2023-05-09T02:09:34.716Z,101254.09
2023-05-09T02:13:38.258Z,101257.81
2023-05-09T02:17:42.191Z,101261.94
2023-05-09T02:21:46.277Z,101260.06
2023-05-09T02:25:49.218Z,101257.31
2023-05-09T02:29:56.208Z,101255.09
2023-05-09T02:33:59.464Z,101252.06
2023-05-09T02:38:04.202Z,101241.66
2023-05-09T02:42:09.054Z,101240.88
2023-05-09T02:46:11.904Z,101232.38
2023-05-09T02:50:14.783Z,101240.06
2023-05-09T02:54:19.494Z,101251.63
2023-05-09T02:58:22.175Z,101249.47
2023-05-09T03:02:24.922Z,101233.84
2023-05-09T03:06:28.028Z,101226.69
2023-05-09T03:10:32.041Z,101224.53
2023-05-09T03:14:34.925Z,101223.44
2023-05-09T03:18:38.917Z,101219.84
2023-05-09T03:22:41.729Z,101202.56
2023-05-09T03:26:48.368Z,101203.03
2023-05-09T03:30:51.635Z,101202.22
2023-05-09T03:34:57.405Z,101205.25
2023-05-09T03:39:01.157Z,101199.78
2023-05-09T03:43:05.699Z,101199.53
2023-05-09T03:47:08.812Z,101197.06
2023-05-09T03:51:15.388Z,101201.44
2023-05-09T03:55:20.692Z,101194.03
2023-05-09T03:59:24.852Z,101191.28
2023-05-09T04:03:27.918Z,101185.78
2023-05-09T04:07:31.127Z,101179.09
2023-05-09T04:11:34.333Z,101189.28
2023-05-09T04:15:38.932Z,101182.44
2023-05-09T04:19:42.238Z,101181.38
2023-05-09T04:23:45.437Z,101178.13
2023-05-09T04:27:49.638Z,101167.44
2023-05-09T04:31:54.222Z,101175.16
2023-05-09T04:36:00.256Z,101169.94
2023-05-09T04:40:04.313Z,101178.16
2023-05-09T04:44:14.435Z,101170.53
2023-05-09T04:48:19.779Z,101160.97
2023-05-09T04:52:22.417Z,101163.47
2023-05-09T04:56:25.120Z,101156.59
2023-05-09T05:00:28.548Z,101149.50
2023-05-09T05:04:32.741Z,101158.28
2023-05-09T05:08:36.850Z,101151.16
2023-05-09T05:12:39.538Z,101142.91
2023-05-09T05:16:45.273Z,101141.00
2023-05-09T05:20:49.640Z,101144.00
2023-05-09T05:24:52.550Z,101139.09
2023-05-09T05:28:57.036Z,101143.19
2023-05-09T05:33:00.884Z,101138.28
2023-05-09T05:37:05.013Z,101141.56
2023-05-09T05:41:11.102Z,101142.41
2023-05-09T05:45:15.409Z,101130.63
2023-05-09T05:49:24.811Z,101132.00
2023-05-09T05:53:30.362Z,101120.47
2023-05-09T05:57:34.516Z,101122.38
2023-05-09T06:01:37.632Z,101121.81
2023-05-09T06:05:43.135Z,101121.25
2023-05-09T06:09:48.176Z,101114.09
2023-05-09T06:13:50.991Z,101114.41
2023-05-09T06:17:53.766Z,101111.94
2023-05-09T06:21:58.465Z,101107.84
2023-05-09T06:26:02.478Z,101110.59
2023-05-09T06:30:14.238Z,101089.19
2023-05-09T06:34:27.285Z,101086.19
2023-05-09T06:38:29.932Z,101063.50
2023-05-09T06:42:34.017Z,101074.19
2023-05-09T06:46:36.704Z,101072.84
2023-05-09T06:50:39.369Z,101064.06
2023-05-09T06:54:42.053Z,101065.69
2023-05-09T06:58:46.108Z,101056.06
2023-05-09T07:02:48.751Z,101046.66
2023-05-09T07:06:51.418Z,101051.00
2023-05-09T07:10:54.360Z,101057.81
2023-05-09T07:14:58.618Z,101053.38
2023-05-09T07:19:01.258Z,101048.41
2023-05-09T07:23:04.194Z,101034.38
2023-05-09T07:27:06.885Z,101028.03
2023-05-09T07:31:10.944Z,101023.00
2023-05-09T07:35:13.740Z,101019.97
2023-05-09T07:39:16.747Z,101023.31
2023-05-09T07:43:19.471Z,101024.97
2023-05-09T07:47:23.602Z,101013.97
2023-05-09T07:51:26.348Z,101011.47
2023-05-09T07:55:29.050Z,101009.53
2023-05-09T07:59:31.859Z,101004.25
2023-05-09T08:03:35.902Z,100997.66
2023-05-09T08:07:38.727Z,100990.75
2023-05-09T08:11:41.513Z,100986.84
2023-05-09T08:15:44.222Z,100977.22
2023-05-09T08:19:48.247Z,100977.75
2023-05-09T08:23:52.353Z,100973.63
2023-05-09T08:27:55.025Z,100962.91
2023-05-09T08:31:57.816Z,100957.44
2023-05-09T08:36:02.391Z,100956.84
2023-05-09T08:40:07.366Z,100946.56
2023-05-09T08:44:10.828Z,100947.97
2023-05-09T08:48:14.739Z,100942.38
2023-05-09T08:52:19.325Z,100939.81
2023-05-09T08:56:22.261Z,100931.88
2023-05-09T09:00:26.639Z,100936.19
2023-05-09T09:04:29.921Z,100932.38
2023-05-09T09:08:36.269Z,100921.91
2023-05-09T09:12:40.190Z,100916.25
2023-05-09T09:16:45.595Z,100911.88
2023-05-09T09:20:51.165Z,100905.25
2023-05-09T09:24:55.304Z,100900.28
2023-05-09T09:28:58.531Z,100898.66
2023-05-09T09:33:01.327Z,100887.41
2023-05-09T09:37:04.009Z,100880.88
2023-05-09T09:41:08.068Z,100884.13
2023-05-09T09:45:12.751Z,100879.25
2023-05-09T09:49:18.456Z,100871.06
2023-05-09T09:53:21.856Z,100866.66
2023-05-09T09:57:39.937Z,100853.38
2023-05-09T10:02:00.175Z,100844.78
2023-05-09T10:06:03.104Z,100840.34
2023-05-09T10:10:06.781Z,100843.72
2023-05-09T10:14:11.529Z,100839.63
2023-05-09T10:18:19.755Z,100825.53
2023-05-09T10:22:23.136Z,100824.00
2023-05-09T10:26:29.106Z,100813.81
2023-05-09T10:30:41.075Z,100804.63
2023-05-09T10:34:48.665Z,100805.81
2023-05-09T10:38:54.320Z,100793.53
2023-05-09T10:42:57.056Z,100783.97
2023-05-09T10:47:02.574Z,100778.50
2023-05-09T10:51:05.759Z,100768.19
2023-05-09T10:55:11.414Z,100769.50
2023-05-09T10:59:37.356Z,100770.63
2023-05-09T11:03:58.379Z,100770.72
2023-05-09T11:08:26.392Z,100770.09
2023-05-09T11:12:29.034Z,100768.78
2023-05-09T11:16:32.018Z,100752.81
2023-05-09T11:20:36.606Z,100746.78
2023-05-09T11:24:40.078Z,100745.13
2023-05-09T11:28:42.880Z,100730.38
2023-05-09T11:32:47.760Z,100736.31
2023-05-09T11:36:51.799Z,100728.44
2023-05-09T11:40:55.927Z,100723.09
2023-05-09T11:44:59.412Z,100707.13
2023-05-09T11:49:03.755Z,100701.09
2023-05-09T11:53:12.343Z,100692.34
2023-05-09T11:57:17.371Z,100680.41
2023-05-09T12:01:21.440Z,100682.81
2023-05-09T12:05:24.526Z,100673.38
2023-05-09T12:09:30.830Z,100668.34
2023-05-09T12:13:33.524Z,100661.59
2023-05-09T12:17:36.948Z,100655.84
2023-05-09T12:21:41.274Z,100653.75
2023-05-09T12:25:50.223Z,100641.03
2023-05-09T12:29:54.889Z,100639.25
2023-05-09T12:33:57.878Z,100633.88
2023-05-09T12:38:01.508Z,100631.59
2023-05-09T12:42:13.180Z,100625.75
2023-05-09T12:46:19.000Z,100624.66
2023-05-09T12:50:21.755Z,100623.34
2023-05-09T12:54:25.262Z,100619.56
2023-05-09T12:58:32.079Z,100624.66
2023-05-09T13:02:35.674Z,100612.69
2023-05-09T13:06:49.047Z,100619.66
2023-05-09T13:10:57.724Z,100618.56
2023-05-09T13:15:11.323Z,100619.91
2023-05-09T13:19:14.446Z,100620.69
2023-05-09T13:23:17.166Z,100615.03
2023-05-09T13:27:19.745Z,100606.59
2023-05-09T13:31:23.991Z,100610.94
2023-05-09T13:35:26.969Z,100602.69
2023-05-09T13:39:29.603Z,100597.84
2023-05-09T13:43:32.431Z,100585.28
2023-05-09T13:47:38.041Z,100583.31
2023-05-09T13:51:41.785Z,100568.53
2023-05-09T13:55:45.620Z,100573.41
2023-05-09T13:59:50.698Z,100571.00
2023-05-09T14:03:54.713Z,100567.28
2023-05-09T14:07:57.522Z,100563.91
2023-05-09T14:12:00.158Z,100554.00
2023-05-09T14:16:02.906Z,100550.78
2023-05-09T14:20:08.369Z,100545.69
2023-05-09T14:24:14.213Z,100534.88
2023-05-09T14:28:18.473Z,100536.94
2023-05-09T14:32:21.202Z,100537.38
2023-05-09T14:36:25.215Z,100540.06
2023-05-09T14:40:31.637Z,100545.81
2023-05-09T14:44:34.273Z,100543.28
2023-05-09T14:48:36.911Z,100558.56
2023-05-09T14:52:41.021Z,100561.47
2023-05-09T14:56:43.779Z,100550.75
2023-05-09T15:00:47.294Z,100556.84
2023-05-09T15:04:50.009Z,100558.03
2023-05-09T15:08:54.155Z,100554.66
2023-05-09T15:12:56.831Z,100553.69
2023-05-09T15:17:02.726Z,100547.03
2023-05-09T15:21:05.909Z,100541.63
2023-05-09T15:25:11.032Z,100541.16
2023-05-09T15:29:13.942Z,100545.47
2023-05-09T15:33:17.568Z,100522.06
2023-05-09T15:37:20.256Z,100539.19
2023-05-09T15:41:24.325Z,100531.75
2023-05-09T15:45:26.953Z,100525.66
2023-05-09T15:49:29.937Z,100522.28
2023-05-09T15:53:32.644Z,100517.59
2023-05-09T15:57:36.690Z,100515.41
2023-05-09T16:01:39.464Z,100516.25
2023-05-09T16:05:43.715Z,100509.47
2023-05-09T16:09:56.858Z,100503.75
2023-05-09T16:14:01.049Z,100501.09
2023-05-09T16:18:03.793Z,100513.31
2023-05-09T16:22:06.580Z,100497.56
2023-05-09T16:26:09.213Z,100516.53
2023-05-09T16:30:14.724Z,100512.06
2023-05-09T16:34:17.638Z,100509.03
2023-05-09T16:38:20.552Z,100507.09
2023-05-09T16:42:23.454Z,100502.13
2023-05-09T16:46:27.492Z,100491.94
2023-05-09T16:50:30.208Z,100491.09
2023-05-09T16:54:32.980Z,100492.44
2023-05-09T16:58:36.810Z,100490.50
2023-05-09T17:02:41.564Z,100484.47
2023-05-09T17:06:44.251Z,100476.53
2023-05-09T17:10:47.077Z,100484.81
2023-05-09T17:14:49.795Z,100485.13
2023-05-09T17:18:53.796Z,100476.41
2023-05-09T17:22:56.505Z,100470.44
2023-05-09T17:26:59.700Z,100479.28
2023-05-09T17:31:03.307Z,100485.31
2023-05-09T17:35:08.224Z,100478.75
2023-05-09T17:39:11.372Z,100473.88
2023-05-09T17:43:14.158Z,100472.56
2023-05-09T17:47:17.248Z,100473.38
2023-05-09T17:51:21.856Z,100461.59
2023-05-09T17:55:24.505Z,100463.22
2023-05-09T17:59:27.139Z,100464.94
2023-05-09T18:03:32.119Z,100458.41
2023-05-09T18:07:36.411Z,100463.13
2023-05-09T18:11:39.445Z,100457.09
2023-05-09T18:15:42.140Z,100450.00
2023-05-09T18:19:44.832Z,100448.91
2023-05-09T18:23:48.807Z,100463.19
2023-05-09T18:27:51.637Z,100461.34
2023-05-09T18:31:56.012Z,100459.72
2023-05-09T18:35:58.922Z,100461.34
2023-05-09T18:40:03.159Z,100456.16
2023-05-09T18:44:06.156Z,100449.00
2023-05-09T18:48:08.784Z,100461.38
2023-05-09T18:52:11.608Z,100458.38
2023-05-09T18:56:17.162Z,100451.00
2023-05-09T19:00:19.942Z,100460.34
2023-05-09T19:04:22.719Z,100461.19
2023-05-09T19:08:26.128Z,100464.47
2023-05-09T19:12:30.181Z,100463.66
2023-05-09T19:16:33.006Z,100458.44
2023-05-09T19:20:35.731Z,100452.13
2023-05-09T19:24:54.630Z,100467.47
2023-05-09T19:29:00.591Z,100467.22
2023-05-09T19:33:03.305Z,100467.28
2023-05-09T19:37:06.093Z,100447.53
2023-05-09T19:41:08.738Z,100453.28
2023-05-09T19:45:13.439Z,100448.69
2023-05-09T19:49:18.018Z,100451.94
2023-05-09T19:53:20.860Z,100447.56
2023-05-09T19:57:23.962Z,100450.34
2023-05-09T20:01:28.244Z,100455.00
2023-05-09T20:05:31.048Z,100453.91
2023-05-09T20:09:33.896Z,100456.13
2023-05-09T20:13:36.587Z,100452.28
2023-05-09T20:17:40.617Z,100443.22
2023-05-09T20:21:43.529Z,100444.06
2023-05-09T20:25:46.161Z,100443.25
2023-05-09T20:29:48.810Z,100435.91
2023-05-09T20:33:54.468Z,100434.31
2023-05-09T20:37:57.202Z,100433.75
2023-05-09T20:42:02.259Z,100433.75
2023-05-09T20:46:05.170Z,100429.91
2023-05-09T20:50:10.380Z,100429.66
2023-05-09T20:54:13.060Z,100423.34
2023-05-09T20:58:15.710Z,100418.13
2023-05-09T21:02:18.418Z,100428.00
2023-05-09T21:06:22.444Z,100415.94
2023-05-09T21:10:25.858Z,100420.06
2023-05-09T21:14:28.573Z,100411.25
2023-05-09T21:18:31.278Z,100406.59
2023-05-09T21:22:35.259Z,100407.69
2023-05-09T21:26:37.871Z,100408.81
2023-05-09T21:30:40.524Z,100410.78
2023-05-09T21:34:43.804Z,100404.44
2023-05-09T21:38:47.754Z,100398.72
2023-05-09T21:42:50.564Z,100393.75
2023-05-09T21:46:53.268Z,100387.44
2023-05-09T21:50:56.008Z,100399.78
2023-05-09T21:55:00.419Z,100381.13
2023-05-09T21:59:03.070Z,100388.00
2023-05-09T22:03:05.864Z,100372.38
2023-05-09T22:07:08.842Z,100380.06
2023-05-09T22:11:14.648Z,100379.75
2023-05-09T22:15:17.833Z,100380.88
2023-05-09T22:19:20.698Z,100377.03
2023-05-09T22:23:23.313Z,100386.63
2023-05-09T22:27:27.613Z,100389.91
2023-05-09T22:31:30.280Z,100385.53
2023-05-09T22:35:32.946Z,100377.03
2023-05-09T22:39:35.559Z,100384.72
2023-05-09T22:43:39.908Z,100380.06
2023-05-09T22:47:42.731Z,100379.84
2023-05-09T22:51:45.601Z,100370.53
2023-05-09T22:55:48.280Z,100371.94
2023-05-09T22:59:53.379Z,100371.41
2023-05-09T23:03:56.040Z,100371.41
2023-05-09T23:07:58.763Z,100365.09
2023-05-09T23:12:02.582Z,100369.47
2023-05-09T23:16:07.304Z,100369.50
2023-05-09T23:20:11.531Z,100366.22
2023-05-09T23:24:14.157Z,100367.88
2023-05-09T23:28:16.828Z,100368.47
2023-05-09T23:32:20.919Z,100366.00
2023-05-09T23:36:23.611Z,100367.66
2023-05-09T23:40:26.307Z,100365.47
2023-05-09T23:44:28.976Z,100364.09
2023-05-09T23:48:32.964Z,100361.63
2023-05-09T23:52:35.914Z,100368.75
2023-05-09T23:56:38.643Z,100358.31
